METAR AND TAF INFORMATION
METAR FOR EBCI
ADDS - METARS form results

(1643 UTC 21 June 2021)
Data provider http://aviationweather.gov/metar/data/
 
METAR text: EBCI 211620Z 04013KT 9999 SCT015 18/15 Q1010 NOSIG
Conditions at: EBCI (CHARLEROI/GOSSEL, BE) observed 1620 UTC 21 June 2021
Temperature: 18.0°C (64°F)
Dewpoint: 15.0°C (59°F) [RH = 83%]
Pressure (altimeter): 29.82 inches Hg (1010.0 mb)
Winds: from the NE (40 degrees) at 15 MPH (13 knots; 6.7 m/s)
Visibility: 6 or more miles (10+ km)
Ceiling: at least 12,000 feet AGL
Clouds: scattered clouds at 1500 feet AGL
Weather: no significant weather observed at this time

METAR text: EBCI 211550Z 04012KT 9999 SCT015 18/14 Q1010 NOSIG
Conditions at: EBCI (CHARLEROI/GOSSEL, BE) observed 1550 UTC 21 June 2021
Temperature: 18.0°C (64°F)
Dewpoint: 14.0°C (57°F) [RH = 77%]
Pressure (altimeter): 29.82 inches Hg (1010.0 mb)
Winds: from the NE (40 degrees) at 14 MPH (12 knots; 6.2 m/s)
Visibility: 6 or more miles (10+ km)
Ceiling: at least 12,000 feet AGL
Clouds: scattered clouds at 1500 feet AGL
Weather: no significant weather observed at this time

Forecast for: EBCI (CHARLEROI/GOSSEL, BE)
Text: TAF EBCI 211114Z 2112/2218 03009KT 9999 BKN012 BKN025
Forecast period: 1200 UTC 21 June 2021 to 1800 UTC 22 June 2021
Forecast type: FROM: standard forecast or significant change
Winds: from the NNE (30 degrees) at 10 MPH (9 knots; 4.6 m/s)
Visibility: 6 or more miles (10+ km)
Ceiling: 1200 feet AGL
Clouds: broken clouds at 1200 feet AGL
broken clouds at 2500 feet AGL
Weather: no significant weather forecast for this period
Text: PROB40
Forecast period: 2200 UTC 21 June 2021 to 0800 UTC 22 June 2021
Forecast type: TEMPORARY: The following changes expected for less than half the time period
Visibility: missing
Ceiling: 600 feet AGL
Clouds: broken clouds at 600 feet AGL
Weather: no significant weather forecast for this period
Text: TEMPO 2122/2208 BKN006
Forecast period: 0300 to 1400 UTC 22 June 2021
Forecast type: TEMPORARY: The following changes expected for less than half the time period
Visibility: 2.49 miles (4.01 km)
Ceiling: 1200 feet AGL
Clouds: broken clouds at 1200 feet AGL
scattered clouds at 4000 feet AGL
Weather: RA SHRA  (moderate rain, rain showers)

 AIRPORT MAP

 RUNWAY INFORMATION
Runway 07 Runway length 8366 ft Runway width 148 ft
Runway elevation 611 ft Runway displaced threshold 1477 ft Runway heading 66
Runway 25 Runway length 8366 ft Runway width 148 ft
Runway elevation 583 ft Runway displaced threshold 0 ft Runway heading 246

 AIRPORT FREQUENCIES
Type APP Name CHARLEROI Frequency 133.125 MHZ
Type ATIS Name ATIS Frequency 134.625 MHZ
Type GND Name CHARLEROI Frequency 121.8 MHZ
Type TWR Name CHARLEROI Frequency 121.3 MHZ

 AIRPORT NEAR NAVIGATION AIDS
Type VOR-DME Name Gosly Frequency 115700 KHZ
Type NDB Name Charleroi Frequency 323 KHZ



Powered by Virtual Airlines Manager [v2.6.2]

Hosted by Utixo.it